Clarks Hill, SC (29821)

10:24 AM EST on February 12, 2016 (GMT -0500)
MARITIME | | Change Station
CLOSE
Current Station
Personal Weather Station
Location: Clarks Hill, SC
Elevation: 298 ft
Nearby Weather Stations

Elev 298 ft 33.66 °N, 82.20 °W | Updated 169 days ago

Mostly Cloudy
Mostly Cloudy
49 °F
Feels Like 49 °F
N
5
Wind Variable Wind from NW
Gusts mph

Today
High -- | Low -- °F
--% Chance of Precip.
Yesterday
High -- | Low -- °F
Precip. -- in
Pressure 30.15 in
Visibility 10.0 miles
Clouds Clear
Dew Point 34 °F
Humidity 56%
Rainfall in
Snow Depth Not available.
7:16 AM 6:09 PM
Waxing Crescent, 21% visible
METAR KDNL 121453Z AUTO 35006KT 10SM CLR 07/00 A3015 RMK AO2 SLP208 T00720000 56005 TSNO
Pressure 30.15 in
Visibility 10.0 miles
Clouds Clear
Dew Point 34 °F
Humidity 56%
Rainfall in
Snow Depth Not available.
7:16 AM 6:09 PM
Waxing Crescent, 21% visible
METAR KDNL 121453Z AUTO 35006KT 10SM CLR 07/00 A3015 RMK AO2 SLP208 T00720000 56005 TSNO

10-Day Weather Forecast

Almanac

Astronomy

Feb. 12, 2016 Rise Set
Actual Time
Civil Twilight
Nautical Twilight
Astronomical Twilight
Moon
Length of Visible Light
Length of Day
Tomorrow will be .
, % of the Moon is Illuminated

Today's Extremes

State Highs State Lows

Community

WunderPhotos

Upload Photos

1,892,329 photos uploaded!

WunderBlog® & News

Nearby

Air Quality

  Air Quality AQ Index Pollutant
Not available.

Snow Depth

Station Depth Elevation

Earthquake Activity

City Distance Mag. Time & Date
Minimum magnitude displayed is 2.5.

Coastal Water Temperatures

Place Temperature

Stations

Nearby Weather Stations

Station Location Temp. Windchill Dew Point Humidity Wind Precip. Elev Updated Type
                   

Watches & Warnings

There are currently no watches in effect.